This is the latest recevied weather packets stored in our database for station/object DB0ROB-10. If no packets are shown the sender has not sent any weather packets the latest 10 day(s).
| Time | Temp. | Humidity | Pressure | Rain* | Wind** | Luminosity | Snow |
|---|---|---|---|---|---|---|---|
| 1778310117 | 24.44° C | 29% | 1017 hPa | - | - | - | - |
| 1778309217 | 22.22° C | 34% | 1017 hPa | - | - | - | - |
| 1778308317 | 13.33° C | 55% | 1017.1 hPa | - | - | - | - |
| 1778307417 | 13.89° C | 53% | 1017.1 hPa | - | - | - | - |
| 1778306515 | 17.22° C | 42% | 1017 hPa | - | - | - | - |
| 1778305615 | 11.67° C | 60% | 1017.2 hPa | - | - | - | - |
| 1778304715 | 10.56° C | 62% | 1017.1 hPa | - | - | - | - |
| 1778303815 | 10.56° C | 64% | 1016.9 hPa | - | - | - | - |
| 1778302915 | 10° C | 66% | 1016.9 hPa | - | - | - | - |
| 1778302014 | 10° C | 65% | 1016.9 hPa | - | - | - | - |
| 1778301114 | 9.44° C | 67% | 1016.8 hPa | - | - | - | - |
| 1778300213 | 9.44° C | 66% | 1016.9 hPa | - | - | - | - |
| 1778299312 | 9.44° C | 67% | 1017 hPa | - | - | - | - |
| 1778298412 | 9.44° C | 66% | 1016.9 hPa | - | - | - | - |
| 1778297512 | 9.44° C | 66% | 1016.9 hPa | - | - | - | - |
| 1778296612 | 9.44° C | 67% | 1017 hPa | - | - | - | - |
| 1778295712 | 8.89° C | 70% | 1016.9 hPa | - | - | - | - |
| 1778294811 | 8.89° C | 67% | 1016.5 hPa | - | - | - | - |
| 1778293911 | 8.89° C | 68% | 1016.8 hPa | - | - | - | - |
| 1778293010 | 9.44° C | 69% | 1016.8 hPa | - | - | - | - |
| 1778292110 | 8.89° C | 69% | 1016.7 hPa | - | - | - | - |
| 1778291214 | 9.44° C | 69% | 1016.9 hPa | - | - | - | - |
| 1778290314 | 8.89° C | 69% | 1016.7 hPa | - | - | - | - |
| 1778289414 | 9.44° C | 69% | 1016.8 hPa | - | - | - | - |
| 1778288513 | 8.89° C | 69% | 1016.9 hPa | - | - | - | - |
* Rain since midnight (hover to see other rain measurements)
** Current wind speed in m/s (hover to see current wind gust speed)